sensor_id;sensor_type;location;lat;lon;timestamp;pressure;altitude;pressure_sealevel;temperature;humidity
74708;BME280;63360;50.104;8.074;2024-02-14T00:01:48;97423.16;;;5.20;100.00
74708;BME280;63360;50.104;8.074;2024-02-14T00:04:14;97424.97;;;5.20;100.00
74708;BME280;63360;50.104;8.074;2024-02-14T00:06:41;97406.91;;;5.20;100.00
74708;BME280;63360;50.104;8.074;2024-02-14T00:09:07;97406.16;;;5.19;100.00
74708;BME280;63360;50.104;8.074;2024-02-14T00:11:34;97419.53;;;5.26;100.00
74708;BME280;63360;50.104;8.074;2024-02-14T00:14:00;97406.88;;;5.30;100.00
74708;BME280;63360;50.104;8.074;2024-02-14T00:16:27;97411.84;;;5.16;100.00
74708;BME280;63360;50.104;8.074;2024-02-14T00:18:56;97399.22;;;5.15;100.00
74708;BME280;63360;50.104;8.074;2024-02-14T00:21:23;97407.41;;;5.22;100.00
74708;BME280;63360;50.104;8.074;2024-02-14T00:23:52;97406.69;;;5.16;100.00
74708;BME280;63360;50.104;8.074;2024-02-14T00:26:19;97402.03;;;5.23;100.00
74708;BME280;63360;50.104;8.074;2024-02-14T00:28:45;97397.66;;;5.14;100.00
74708;BME280;63360;50.104;8.074;2024-02-14T00:31:12;97401.50;;;5.21;100.00
74708;BME280;63360;50.104;8.074;2024-02-14T00:33:38;97394.06;;;5.15;100.00
74708;BME280;63360;50.104;8.074;2024-02-14T00:36:05;97397.13;;;5.27;100.00
74708;BME280;63360;50.104;8.074;2024-02-14T00:38:32;97386.06;;;5.16;100.00
74708;BME280;63360;50.104;8.074;2024-02-14T00:40:58;97388.88;;;5.20;100.00
74708;BME280;63360;50.104;8.074;2024-02-14T00:43:24;97382.22;;;5.09;100.00
74708;BME280;63360;50.104;8.074;2024-02-14T00:45:51;97400.75;;;5.16;100.00
74708;BME280;63360;50.104;8.074;2024-02-14T00:48:17;97385.03;;;5.12;100.00
74708;BME280;63360;50.104;8.074;2024-02-14T00:50:44;97381.94;;;5.15;100.00
74708;BME280;63360;50.104;8.074;2024-02-14T00:53:11;97395.34;;;5.12;100.00
74708;BME280;63360;50.104;8.074;2024-02-14T00:55:38;97378.63;;;5.05;100.00
74708;BME280;63360;50.104;8.074;2024-02-14T00:58:04;97379.44;;;5.00;100.00
74708;BME280;63360;50.104;8.074;2024-02-14T01:00:31;97393.03;;;5.16;100.00
74708;BME280;63360;50.104;8.074;2024-02-14T01:03:01;97374.47;;;5.09;100.00
74708;BME280;63360;50.104;8.074;2024-02-14T01:05:28;97391.50;;;5.10;100.00
74708;BME280;63360;50.104;8.074;2024-02-14T01:07:55;97374.50;;;4.99;100.00
74708;BME280;63360;50.104;8.074;2024-02-14T01:10:21;97388.69;;;5.01;100.00
74708;BME280;63360;50.104;8.074;2024-02-14T01:12:48;97381.25;;;4.89;100.00
74708;BME280;63360;50.104;8.074;2024-02-14T01:15:14;97389.72;;;4.95;100.00
74708;BME280;63360;50.104;8.074;2024-02-14T01:17:41;97380.16;;;5.01;100.00
74708;BME280;63360;50.104;8.074;2024-02-14T01:20:08;97384.84;;;4.94;100.00
74708;BME280;63360;50.104;8.074;2024-02-14T01:22:37;97385.06;;;5.07;100.00
74708;BME280;63360;50.104;8.074;2024-02-14T01:25:03;97383.25;;;5.08;100.00
74708;BME280;63360;50.104;8.074;2024-02-14T01:27:31;97381.47;;;5.08;100.00
74708;BME280;63360;50.104;8.074;2024-02-14T01:29:57;97371.88;;;5.14;100.00
74708;BME280;63360;50.104;8.074;2024-02-14T01:32:24;97364.88;;;5.19;100.00
74708;BME280;63360;50.104;8.074;2024-02-14T01:34:52;97379.53;;;5.34;100.00
74708;BME280;63360;50.104;8.074;2024-02-14T01:37:18;97377.44;;;5.41;100.00
74708;BME280;63360;50.104;8.074;2024-02-14T01:39:47;97364.31;;;5.32;100.00
74708;BME280;63360;50.104;8.074;2024-02-14T01:42:13;97362.44;;;5.43;100.00
74708;BME280;63360;50.104;8.074;2024-02-14T01:44:39;97364.22;;;5.53;100.00
74708;BME280;63360;50.104;8.074;2024-02-14T01:47:06;97360.09;;;5.51;100.00
74708;BME280;63360;50.104;8.074;2024-02-14T01:49:33;97367.53;;;5.58;100.00
74708;BME280;63360;50.104;8.074;2024-02-14T01:52:02;97374.16;;;5.74;100.00
74708;BME280;63360;50.104;8.074;2024-02-14T01:54:33;97352.72;;;5.74;100.00
74708;BME280;63360;50.104;8.074;2024-02-14T01:57:00;97360.34;;;5.94;100.00
74708;BME280;63360;50.104;8.074;2024-02-14T01:59:28;97355.72;;;5.91;100.00
74708;BME280;63360;50.104;8.074;2024-02-14T02:01:54;97355.97;;;5.94;100.00
74708;BME280;63360;50.104;8.074;2024-02-14T02:04:21;97354.13;;;6.00;100.00
74708;BME280;63360;50.104;8.074;2024-02-14T02:06:48;97352.25;;;6.05;100.00
74708;BME280;63360;50.104;8.074;2024-02-14T02:09:14;97354.03;;;6.10;100.00
74708;BME280;63360;50.104;8.074;2024-02-14T02:11:48;97344.22;;;6.12;100.00
74708;BME280;63360;50.104;8.074;2024-02-14T02:14:16;97334.91;;;6.11;100.00
74708;BME280;63360;50.104;8.074;2024-02-14T02:16:43;97332.25;;;6.21;100.00
74708;BME280;63360;50.104;8.074;2024-02-14T02:19:09;97324.53;;;6.16;100.00
74708;BME280;63360;50.104;8.074;2024-02-14T02:21:36;97329.50;;;6.07;100.00
74708;BME280;63360;50.104;8.074;2024-02-14T02:24:04;97314.59;;;5.99;100.00
74708;BME280;63360;50.104;8.074;2024-02-14T02:26:31;97332.06;;;6.13;100.00
74708;BME280;63360;50.104;8.074;2024-02-14T02:28:57;97334.81;;;6.21;100.00
74708;BME280;63360;50.104;8.074;2024-02-14T02:31:23;97345.16;;;6.21;100.00
74708;BME280;63360;50.104;8.074;2024-02-14T02:33:50;97342.63;;;6.16;100.00
74708;BME280;63360;50.104;8.074;2024-02-14T02:36:17;97335.16;;;6.09;100.00
74708;BME280;63360;50.104;8.074;2024-02-14T02:38:43;97352.66;;;6.18;100.00
74708;BME280;63360;50.104;8.074;2024-02-14T02:41:10;97342.47;;;6.02;100.00
74708;BME280;63360;50.104;8.074;2024-02-14T02:43:36;97348.31;;;6.13;100.00
74708;BME280;63360;50.104;8.074;2024-02-14T02:46:03;97337.25;;;6.07;100.00
74708;BME280;63360;50.104;8.074;2024-02-14T02:48:29;97338.28;;;6.12;100.00
74708;BME280;63360;50.104;8.074;2024-02-14T02:50:58;97344.97;;;6.13;100.00
74708;BME280;63360;50.104;8.074;2024-02-14T02:53:24;97342.72;;;6.06;100.00
74708;BME280;63360;50.104;8.074;2024-02-14T02:55:51;97336.53;;;6.02;100.00
74708;BME280;63360;50.104;8.074;2024-02-14T02:58:17;97331.91;;;5.99;100.00
74708;BME280;63360;50.104;8.074;2024-02-14T03:00:44;97344.09;;;5.93;100.00
74708;BME280;63360;50.104;8.074;2024-02-14T03:03:11;97354.19;;;5.90;100.00
74708;BME280;63360;50.104;8.074;2024-02-14T03:05:37;97350.38;;;5.77;100.00
74708;BME280;63360;50.104;8.074;2024-02-14T03:08:05;97355.28;;;5.79;100.00
74708;BME280;63360;50.104;8.074;2024-02-14T03:10:33;97356.13;;;5.69;100.00
74708;BME280;63360;50.104;8.074;2024-02-14T03:13:00;97359.53;;;5.60;100.00
74708;BME280;63360;50.104;8.074;2024-02-14T03:15:26;97344.88;;;5.50;100.00
74708;BME280;63360;50.104;8.074;2024-02-14T03:17:52;97347.19;;;5.51;100.00
74708;BME280;63360;50.104;8.074;2024-02-14T03:20:19;97361.63;;;5.53;100.00
74708;BME280;63360;50.104;8.074;2024-02-14T03:22:46;97352.34;;;5.51;100.00
74708;BME280;63360;50.104;8.074;2024-02-14T03:25:16;97357.47;;;5.57;100.00
74708;BME280;63360;50.104;8.074;2024-02-14T03:27:42;97363.69;;;5.56;100.00
74708;BME280;63360;50.104;8.074;2024-02-14T03:30:11;97357.50;;;5.51;100.00
74708;BME280;63360;50.104;8.074;2024-02-14T03:32:39;97343.63;;;5.42;100.00
74708;BME280;63360;50.104;8.074;2024-02-14T03:35:05;97366.31;;;5.50;100.00
74708;BME280;63360;50.104;8.074;2024-02-14T03:37:32;97361.41;;;5.44;100.00
74708;BME280;63360;50.104;8.074;2024-02-14T03:39:58;97364.31;;;5.37;100.00
74708;BME280;63360;50.104;8.074;2024-02-14T03:42:25;97346.81;;;5.29;100.00
74708;BME280;63360;50.104;8.074;2024-02-14T03:44:52;97346.81;;;5.29;100.00
74708;BME280;63360;50.104;8.074;2024-02-14T03:47:19;97339.06;;;5.29;100.00
74708;BME280;63360;50.104;8.074;2024-02-14T03:49:45;97353.03;;;5.23;100.00
74708;BME280;63360;50.104;8.074;2024-02-14T03:52:11;97354.28;;;5.26;100.00
74708;BME280;63360;50.104;8.074;2024-02-14T03:54:38;97373.09;;;5.31;100.00
74708;BME280;63360;50.104;8.074;2024-02-14T03:57:05;97369.47;;;5.37;100.00
74708;BME280;63360;50.104;8.074;2024-02-14T03:59:37;97379.00;;;5.37;100.00
74708;BME280;63360;50.104;8.074;2024-02-14T04:02:05;97378.25;;;5.31;100.00
74708;BME280;63360;50.104;8.074;2024-02-14T04:04:41;97377.91;;;5.43;100.00
74708;BME280;63360;50.104;8.074;2024-02-14T04:07:08;97375.38;;;5.38;100.00
74708;BME280;63360;50.104;8.074;2024-02-14T04:09:35;97385.16;;;5.41;100.00
74708;BME280;63360;50.104;8.074;2024-02-14T04:12:01;97381.06;;;5.40;100.00
74708;BME280;63360;50.104;8.074;2024-02-14T04:14:28;97390.81;;;5.43;100.00
74708;BME280;63360;50.104;8.074;2024-02-14T04:16:54;97377.22;;;5.37;100.00
74708;BME280;63360;50.104;8.074;2024-02-14T04:19:21;97382.38;;;5.32;100.00
74708;BME280;63360;50.104;8.074;2024-02-14T04:21:48;97380.06;;;5.31;100.00
74708;BME280;63360;50.104;8.074;2024-02-14T04:24:15;97389.34;;;5.32;100.00
74708;BME280;63360;50.104;8.074;2024-02-14T04:26:42;97390.63;;;5.34;100.00
74708;BME280;63360;50.104;8.074;2024-02-14T04:29:08;97408.63;;;5.44;100.00
74708;BME280;63360;50.104;8.074;2024-02-14T04:31:35;97405.25;;;5.49;100.00
74708;BME280;63360;50.104;8.074;2024-02-14T04:34:01;97405.03;;;5.45;100.00
74708;BME280;63360;50.104;8.074;2024-02-14T04:36:28;97406.28;;;5.53;100.00
74708;BME280;63360;50.104;8.074;2024-02-14T04:38:57;97401.84;;;5.53;100.00
74708;BME280;63360;50.104;8.074;2024-02-14T04:41:23;97403.94;;;5.51;100.00
74708;BME280;63360;50.104;8.074;2024-02-14T04:43:50;97400.34;;;5.53;100.00
74708;BME280;63360;50.104;8.074;2024-02-14T04:46:16;97393.13;;;5.49;100.00
74708;BME280;63360;50.104;8.074;2024-02-14T04:48:42;97385.56;;;5.63;100.00
74708;BME280;63360;50.104;8.074;2024-02-14T04:51:09;97378.06;;;5.62;100.00
74708;BME280;63360;50.104;8.074;2024-02-14T04:53:35;97369.63;;;5.56;100.00
74708;BME280;63360;50.104;8.074;2024-02-14T04:56:02;97371.97;;;5.53;100.00
74708;BME280;63360;50.104;8.074;2024-02-14T04:58:28;97375.03;;;5.55;100.00
74708;BME280;63360;50.104;8.074;2024-02-14T05:00:55;97372.44;;;5.55;100.00
74708;BME280;63360;50.104;8.074;2024-02-14T05:03:21;97368.09;;;5.50;100.00
74708;BME280;63360;50.104;8.074;2024-02-14T05:05:50;97364.22;;;5.53;100.00
74708;BME280;63360;50.104;8.074;2024-02-14T05:08:17;97362.91;;;5.55;100.00
74708;BME280;63360;50.104;8.074;2024-02-14T05:10:43;97358.56;;;5.50;100.00
74708;BME280;63360;50.104;8.074;2024-02-14T05:13:10;97357.78;;;5.50;100.00
74708;BME280;63360;50.104;8.074;2024-02-14T05:15:36;97364.47;;;5.56;100.00
74708;BME280;63360;50.104;8.074;2024-02-14T05:18:03;97375.03;;;5.55;100.00
74708;BME280;63360;50.104;8.074;2024-02-14T05:20:30;97378.09;;;5.57;100.00
74708;BME280;63360;50.104;8.074;2024-02-14T05:22:56;97375.28;;;5.58;100.00
74708;BME280;63360;50.104;8.074;2024-02-14T05:25:22;97371.66;;;5.59;100.00
74708;BME280;63360;50.104;8.074;2024-02-14T05:27:49;97374.97;;;5.65;100.00
74708;BME280;63360;50.104;8.074;2024-02-14T05:30:15;97374.00;;;5.56;100.00
74708;BME280;63360;50.104;8.074;2024-02-14T05:32:42;97379.91;;;5.61;100.00
74708;BME280;63360;50.104;8.074;2024-02-14T05:35:09;97371.63;;;5.64;100.00
74708;BME280;63360;50.104;8.074;2024-02-14T05:37:36;97376.22;;;5.72;100.00
74708;BME280;63360;50.104;8.074;2024-02-14T05:40:05;97371.28;;;5.76;100.00
74708;BME280;63360;50.104;8.074;2024-02-14T05:42:33;97380.09;;;5.70;100.00
74708;BME280;63360;50.104;8.074;2024-02-14T05:45:00;97380.34;;;5.73;100.00
74708;BME280;63360;50.104;8.074;2024-02-14T05:47:28;97377.22;;;5.76;100.00
74708;BME280;63360;50.104;8.074;2024-02-14T05:49:56;97381.09;;;5.79;100.00
74708;BME280;63360;50.104;8.074;2024-02-14T05:52:22;97389.81;;;5.83;100.00
74708;BME280;63360;50.104;8.074;2024-02-14T05:54:49;97378.25;;;5.85;100.00
74708;BME280;63360;50.104;8.074;2024-02-14T05:57:15;97377.47;;;5.85;100.00
74708;BME280;63360;50.104;8.074;2024-02-14T05:59:41;97380.06;;;5.80;100.00
74708;BME280;63360;50.104;8.074;2024-02-14T06:02:08;97376.41;;;5.86;100.00
74708;BME280;63360;50.104;8.074;2024-02-14T06:04:36;97377.91;;;5.92;100.00
74708;BME280;63360;50.104;8.074;2024-02-14T06:07:02;97397.03;;;5.91;100.00
74708;BME280;63360;50.104;8.074;2024-02-14T06:09:31;97373.81;;;5.86;100.00
74708;BME280;63360;50.104;8.074;2024-02-14T06:11:58;97379.72;;;5.91;100.00
74708;BME280;63360;50.104;8.074;2024-02-14T06:14:24;97380.78;;;5.90;100.00
74708;BME280;63360;50.104;8.074;2024-02-14T06:16:50;97383.03;;;5.97;100.00
74708;BME280;63360;50.104;8.074;2024-02-14T06:19:17;97388.75;;;5.94;100.00
74708;BME280;63360;50.104;8.074;2024-02-14T06:21:43;97381.81;;;5.89;100.00
74708;BME280;63360;50.104;8.074;2024-02-14T06:24:09;97403.22;;;5.95;100.00
74708;BME280;63360;50.104;8.074;2024-02-14T06:26:39;97392.41;;;5.88;100.00
74708;BME280;63360;50.104;8.074;2024-02-14T06:29:06;97393.38;;;5.97;100.00
74708;BME280;63360;50.104;8.074;2024-02-14T06:31:33;97403.50;;;5.93;100.00
74708;BME280;63360;50.104;8.074;2024-02-14T06:33:59;97416.56;;;6.02;100.00
74708;BME280;63360;50.104;8.074;2024-02-14T06:36:26;97423.84;;;5.95;100.00
74708;BME280;63360;50.104;8.074;2024-02-14T06:38:52;97423.53;;;6.01;100.00
74708;BME280;63360;50.104;8.074;2024-02-14T06:41:19;97411.97;;;5.94;100.00
74708;BME280;63360;50.104;8.074;2024-02-14T06:43:46;97414.34;;;5.90;100.00
74708;BME280;63360;50.104;8.074;2024-02-14T06:46:12;97431.34;;;5.91;100.00
74708;BME280;63360;50.104;8.074;2024-02-14T06:48:39;97433.94;;;5.91;100.00
74708;BME280;63360;50.104;8.074;2024-02-14T06:51:06;97436.19;;;6.03;100.00
74708;BME280;63360;50.104;8.074;2024-02-14T06:53:33;97431.81;;;6.03;100.00
74708;BME280;63360;50.104;8.074;2024-02-14T06:55:59;97435.75;;;5.96;100.00
74708;BME280;63360;50.104;8.074;2024-02-14T06:58:26;97426.47;;;5.90;100.00
74708;BME280;63360;50.104;8.074;2024-02-14T07:00:52;97425.19;;;5.87;100.00
74708;BME280;63360;50.104;8.074;2024-02-14T07:03:18;97429.59;;;5.87;100.00
74708;BME280;63360;50.104;8.074;2024-02-14T07:05:45;97441.47;;;5.88;100.00
74708;BME280;63360;50.104;8.074;2024-02-14T07:08:11;97426.72;;;5.83;100.00
74708;BME280;63360;50.104;8.074;2024-02-14T07:10:38;97433.44;;;5.89;100.00
74708;BME280;63360;50.104;8.074;2024-02-14T07:13:04;97444.06;;;5.88;100.00
74708;BME280;63360;50.104;8.074;2024-02-14T07:15:31;97441.72;;;5.86;100.00
74708;BME280;63360;50.104;8.074;2024-02-14T07:17:57;97453.81;;;5.91;100.00
74708;BME280;63360;50.104;8.074;2024-02-14T07:20:25;97446.34;;;5.84;100.00
74708;BME280;63360;50.104;8.074;2024-02-14T07:22:59;97445.84;;;5.87;100.00
74708;BME280;63360;50.104;8.074;2024-02-14T07:25:25;97447.84;;;6.00;100.00
74708;BME280;63360;50.104;8.074;2024-02-14T07:27:51;97450.91;;;6.02;100.00
74708;BME280;63360;50.104;8.074;2024-02-14T07:30:18;97453.47;;;6.07;100.00
74708;BME280;63360;50.104;8.074;2024-02-14T07:32:45;97451.69;;;6.03;100.00
74708;BME280;63360;50.104;8.074;2024-02-14T07:35:11;97455.78;;;6.09;100.00
74708;BME280;63360;50.104;8.074;2024-02-14T07:37:39;97459.91;;;6.10;100.00
74708;BME280;63360;50.104;8.074;2024-02-14T07:40:06;97446.22;;;6.09;100.00
74708;BME280;63360;50.104;8.074;2024-02-14T07:42:33;97464.22;;;6.25;100.00
74708;BME280;63360;50.104;8.074;2024-02-14T07:44:59;97458.25;;;6.24;100.00
74708;BME280;63360;50.104;8.074;2024-02-14T07:47:26;97464.22;;;6.25;100.00
74708;BME280;63360;50.104;8.074;2024-02-14T07:49:52;97472.91;;;6.34;100.00
74708;BME280;63360;50.104;8.074;2024-02-14T07:52:19;97471.69;;;6.26;100.00
74708;BME280;63360;50.104;8.074;2024-02-14T07:54:45;97474.91;;;6.42;100.00
74708;BME280;63360;50.104;8.074;2024-02-14T07:57:12;97465.41;;;6.37;100.00
74708;BME280;63360;50.104;8.074;2024-02-14T07:59:38;97465.81;;;6.49;100.00
74708;BME280;63360;50.104;8.074;2024-02-14T08:02:05;97467.41;;;6.45;100.00
74708;BME280;63360;50.104;8.074;2024-02-14T08:04:31;97480.03;;;6.47;100.00
74708;BME280;63360;50.104;8.074;2024-02-14T08:06:58;97475.56;;;6.57;100.00
74708;BME280;63360;50.104;8.074;2024-02-14T08:09:24;97475.34;;;6.54;100.00
74708;BME280;63360;50.104;8.074;2024-02-14T08:11:51;97474.88;;;6.52;100.00
74708;BME280;63360;50.104;8.074;2024-02-14T08:14:19;97475.56;;;6.62;100.00
74708;BME280;63360;50.104;8.074;2024-02-14T08:16:45;97464.78;;;6.50;100.00
74708;BME280;63360;50.104;8.074;2024-02-14T08:19:12;97460.09;;;6.52;100.00
74708;BME280;63360;50.104;8.074;2024-02-14T08:21:38;97456.03;;;6.46;100.00
74708;BME280;63360;50.104;8.074;2024-02-14T08:24:05;97478.94;;;6.58;100.00
74708;BME280;63360;50.104;8.074;2024-02-14T08:26:31;97481.66;;;6.71;100.00
74708;BME280;63360;50.104;8.074;2024-02-14T08:28:58;97477.38;;;6.62;100.00
74708;BME280;63360;50.104;8.074;2024-02-14T08:31:24;97483.81;;;6.64;100.00
74708;BME280;63360;50.104;8.074;2024-02-14T08:33:51;97486.16;;;6.61;100.00
74708;BME280;63360;50.104;8.074;2024-02-14T08:36:17;97499.81;;;6.66;100.00
74708;BME280;63360;50.104;8.074;2024-02-14T08:38:45;97497.22;;;6.66;100.00
74708;BME280;63360;50.104;8.074;2024-02-14T08:41:12;97499.75;;;6.71;100.00
74708;BME280;63360;50.104;8.074;2024-02-14T08:43:38;97506.19;;;6.74;100.00
74708;BME280;63360;50.104;8.074;2024-02-14T08:46:12;97512.16;;;6.75;100.00
74708;BME280;63360;50.104;8.074;2024-02-14T08:48:38;97501.84;;;6.69;100.00
74708;BME280;63360;50.104;8.074;2024-02-14T08:51:13;97501.06;;;6.69;100.00
74708;BME280;63360;50.104;8.074;2024-02-14T08:53:40;97511.16;;;6.65;100.00
74708;BME280;63360;50.104;8.074;2024-02-14T08:56:10;97498.00;;;6.67;100.00
74708;BME280;63360;50.104;8.074;2024-02-14T08:58:37;97489.28;;;6.58;100.00
74708;BME280;63360;50.104;8.074;2024-02-14T09:01:03;97503.75;;;6.59;100.00
74708;BME280;63360;50.104;8.074;2024-02-14T09:03:40;97506.28;;;6.64;100.00
74708;BME280;63360;50.104;8.074;2024-02-14T09:06:09;97496.22;;;6.62;100.00
74708;BME280;63360;50.104;8.074;2024-02-14T09:08:36;97497.22;;;6.66;100.00
74708;BME280;63360;50.104;8.074;2024-02-14T09:11:02;97496.91;;;6.73;100.00
74708;BME280;63360;50.104;8.074;2024-02-14T09:13:28;97495.91;;;6.69;100.00
74708;BME280;63360;50.104;8.074;2024-02-14T09:15:55;97499.19;;;6.80;100.00
74708;BME280;63360;50.104;8.074;2024-02-14T09:18:22;97499.75;;;6.71;100.00
74708;BME280;63360;50.104;8.074;2024-02-14T09:20:50;97488.84;;;6.80;100.00
74708;BME280;63360;50.104;8.074;2024-02-14T09:23:17;97496.06;;;6.83;100.00
74708;BME280;63360;50.104;8.074;2024-02-14T09:25:46;97504.34;;;6.80;100.00
74708;BME280;63360;50.104;8.074;2024-02-14T09:28:13;97500.94;;;6.84;100.00
74708;BME280;63360;50.104;8.074;2024-02-14T09:30:40;97493.16;;;6.89;100.00
74708;BME280;63360;50.104;8.074;2024-02-14T09:33:07;97497.81;;;6.87;100.00
74708;BME280;63360;50.104;8.074;2024-02-14T09:35:33;97496.38;;;7.05;100.00
74708;BME280;63360;50.104;8.074;2024-02-14T09:38:01;97513.41;;;7.06;100.00
74708;BME280;63360;50.104;8.074;2024-02-14T09:40:27;97513.66;;;7.09;100.00
74708;BME280;63360;50.104;8.074;2024-02-14T09:42:55;97506.88;;;7.13;100.00
74708;BME280;63360;50.104;8.074;2024-02-14T09:45:24;97515.41;;;7.14;100.00
74708;BME280;63360;50.104;8.074;2024-02-14T09:47:52;97489.34;;;7.05;100.00
74708;BME280;63360;50.104;8.074;2024-02-14T09:50:20;97513.09;;;7.12;100.00
74708;BME280;63360;50.104;8.074;2024-02-14T09:52:50;97516.53;;;7.31;100.00
74708;BME280;63360;50.104;8.074;2024-02-14T09:55:16;97522.44;;;7.37;100.00
74708;BME280;63360;50.104;8.074;2024-02-14T09:57:43;97506.03;;;7.47;100.00
74708;BME280;63360;50.104;8.074;2024-02-14T10:00:10;97502.22;;;7.63;100.00
74708;BME280;63360;50.104;8.074;2024-02-14T10:02:38;97507.97;;;7.78;100.00
74708;BME280;63360;50.104;8.074;2024-02-14T10:05:05;97508.06;;;7.92;100.00
74708;BME280;63360;50.104;8.074;2024-02-14T10:07:40;97511.84;;;8.00;100.00
74708;BME280;63360;50.104;8.074;2024-02-14T10:10:06;97520.81;;;8.07;100.00
74708;BME280;63360;50.104;8.074;2024-02-14T10:12:33;97518.22;;;8.26;100.00
74708;BME280;63360;50.104;8.074;2024-02-14T10:15:00;97518.00;;;8.27;100.00
74708;BME280;63360;50.104;8.074;2024-02-14T10:17:28;97521.88;;;8.25;100.00
74708;BME280;63360;50.104;8.074;2024-02-14T10:19:58;97520.69;;;8.36;100.00
74708;BME280;63360;50.104;8.074;2024-02-14T10:22:32;97503.06;;;8.38;100.00
74708;BME280;63360;50.104;8.074;2024-02-14T10:24:58;97522.88;;;8.47;100.00
74708;BME280;63360;50.104;8.074;2024-02-14T10:27:25;97528.84;;;8.48;100.00
74708;BME280;63360;50.104;8.074;2024-02-14T10:29:55;97531.56;;;8.57;100.00
74708;BME280;63360;50.104;8.074;2024-02-14T10:32:22;97533.31;;;8.61;100.00
74708;BME280;63360;50.104;8.074;2024-02-14T10:34:50;97547.50;;;8.82;100.00
74708;BME280;63360;50.104;8.074;2024-02-14T10:37:18;97544.25;;;8.90;100.00
74708;BME280;63360;50.104;8.074;2024-02-14T10:39:47;97537.03;;;8.87;100.00
74708;BME280;63360;50.104;8.074;2024-02-14T10:42:18;97544.47;;;8.94;100.00
74708;BME280;63360;50.104;8.074;2024-02-14T10:44:45;97537.44;;;8.94;100.00
74708;BME280;63360;50.104;8.074;2024-02-14T10:47:19;97541.22;;;9.02;100.00
74708;BME280;63360;50.104;8.074;2024-02-14T10:49:48;97545.63;;;9.01;100.00
74708;BME280;63360;50.104;8.074;2024-02-14T10:52:15;97541.56;;;8.95;100.00
74708;BME280;63360;50.104;8.074;2024-02-14T10:54:43;97539.75;;;8.96;100.00
74708;BME280;63360;50.104;8.074;2024-02-14T10:57:12;97537.44;;;8.94;100.00
74708;BME280;63360;50.104;8.074;2024-02-14T10:59:43;97544.28;;;9.04;100.00
74708;BME280;63360;50.104;8.074;2024-02-14T11:02:11;97533.13;;;9.03;100.00
74708;BME280;63360;50.104;8.074;2024-02-14T11:04:38;97526.69;;;9.01;100.00
74708;BME280;63360;50.104;8.074;2024-02-14T11:07:09;97532.34;;;8.89;100.00
74708;BME280;63360;50.104;8.074;2024-02-14T11:09:36;97530.53;;;9.03;100.00
74708;BME280;63360;50.104;8.074;2024-02-14T11:12:10;97513.34;;;9.07;100.00
74708;BME280;63360;50.104;8.074;2024-02-14T11:14:36;97523.72;;;9.07;100.00
74708;BME280;63360;50.104;8.074;2024-02-14T11:17:09;97519.41;;;9.17;100.00
74708;BME280;63360;50.104;8.074;2024-02-14T11:19:36;97530.97;;;9.24;100.00
74708;BME280;63360;50.104;8.074;2024-02-14T11:22:18;97534.78;;;9.13;100.00
74708;BME280;63360;50.104;8.074;2024-02-14T11:24:48;97534.41;;;9.06;100.00
74708;BME280;63360;50.104;8.074;2024-02-14T11:27:14;97536.59;;;8.99;100.00
74708;BME280;63360;50.104;8.074;2024-02-14T11:29:59;97534.53;;;8.82;100.00
74708;BME280;63360;50.104;8.074;2024-02-14T11:32:27;97541.41;;;8.73;100.00
74708;BME280;63360;50.104;8.074;2024-02-14T11:34:55;97539.59;;;8.55;100.00
74708;BME280;63360;50.104;8.074;2024-02-14T11:37:29;97550.75;;;8.56;100.00
74708;BME280;63360;50.104;8.074;2024-02-14T11:39:56;97543.84;;;8.32;100.00
74708;BME280;63360;50.104;8.074;2024-02-14T11:42:24;97544.25;;;8.39;100.00
74708;BME280;63360;50.104;8.074;2024-02-14T11:44:52;97541.56;;;8.26;100.00
74708;BME280;63360;50.104;8.074;2024-02-14T11:47:19;97537.22;;;8.21;100.00
74708;BME280;63360;50.104;8.074;2024-02-14T11:49:46;97535.59;;;8.25;100.00
74708;BME280;63360;50.104;8.074;2024-02-14T11:52:13;97541.31;;;8.27;100.00
74708;BME280;63360;50.104;8.074;2024-02-14T11:54:46;97536.19;;;8.22;100.00
74708;BME280;63360;50.104;8.074;2024-02-14T11:57:16;97529.31;;;8.31;100.00
74708;BME280;63360;50.104;8.074;2024-02-14T11:59:43;97541.81;;;8.29;100.00
74708;BME280;63360;50.104;8.074;2024-02-14T12:02:09;97540.25;;;8.28;100.00
74708;BME280;63360;50.104;8.074;2024-02-14T12:04:36;97536.31;;;8.31;100.00
74708;BME280;63360;50.104;8.074;2024-02-14T12:07:03;97526.47;;;8.33;100.00
74708;BME280;63360;50.104;8.074;2024-02-14T12:09:30;97525.81;;;8.41;100.00
74708;BME280;63360;50.104;8.074;2024-02-14T12:11:56;97520.34;;;8.42;100.00
74708;BME280;63360;50.104;8.074;2024-02-14T12:14:23;97528.53;;;8.49;100.00
74708;BME280;63360;50.104;8.074;2024-02-14T12:17:01;97513.53;;;8.46;100.00
74708;BME280;63360;50.104;8.074;2024-02-14T12:19:33;97526.94;;;8.53;100.00
74708;BME280;63360;50.104;8.074;2024-02-14T12:22:01;97526.66;;;8.55;100.00
74708;BME280;63360;50.104;8.074;2024-02-14T12:24:28;97509.91;;;8.47;100.00
74708;BME280;63360;50.104;8.074;2024-02-14T12:26:55;97517.41;;;8.49;100.00
74708;BME280;63360;50.104;8.074;2024-02-14T12:29:23;97519.56;;;8.61;100.00
74708;BME280;63360;50.104;8.074;2024-02-14T12:31:50;97510.66;;;8.67;100.00
74708;BME280;63360;50.104;8.074;2024-02-14T12:34:16;97504.22;;;8.64;100.00
74708;BME280;63360;50.104;8.074;2024-02-14T12:36:44;97522.28;;;8.69;100.00
74708;BME280;63360;50.104;8.074;2024-02-14T12:39:10;97513.31;;;8.80;100.00
74708;BME280;63360;50.104;8.074;2024-02-14T12:41:39;97512.66;;;8.88;100.00
74708;BME280;63360;50.104;8.074;2024-02-14T12:44:07;97515.41;;;8.92;100.00
74708;BME280;63360;50.104;8.074;2024-02-14T12:46:33;97506.03;;;8.96;100.00
74708;BME280;63360;50.104;8.074;2024-02-14T12:49:00;97515.53;;;9.00;100.00
74708;BME280;63360;50.104;8.074;2024-02-14T12:51:26;97496.41;;;8.83;100.00
74708;BME280;63360;50.104;8.074;2024-02-14T12:53:55;97518.44;;;8.99;100.00
74708;BME280;63360;50.104;8.074;2024-02-14T12:56:21;97511.50;;;8.94;100.00
74708;BME280;63360;50.104;8.074;2024-02-14T12:58:47;97515.94;;;8.94;100.00
74708;BME280;63360;50.104;8.074;2024-02-14T13:01:14;97519.69;;;9.01;100.00